Time,TemperatureF,DewpointF,PressureIn,WindDirection,WindDirectionDegrees,WindSpeedMPH,WindSpeedGustMPH,Humidity,HourlyPrecipIn,Conditions,Clouds,dailyrainin,SolarRadiationWatts/m^2,SoftwareType,DateUTC
2013-04-26 00:00:00,35.0,26.0,-100.00,SW,225,0.0,-999.0,68,-99.99,,,-99.99,0.000000,,2013-04-26 04:00:00,
2013-04-26 00:43:00,35.0,26.0,-100.00,SW,225,0.0,-999.0,68,-99.99,,,-99.99,0.000000,,2013-04-26 04:43:00,
2013-04-26 00:53:00,35.0,26.0,-100.00,SW,225,0.0,-999.0,68,-99.99,,,-99.99,0.000000,,2013-04-26 04:53:00,
2013-04-26 01:00:00,32.0,25.0,-100.00,SW,225,1.0,-999.0,73,-99.99,,,-99.99,0.000000,,2013-04-26 05:00:00,
2013-04-26 01:42:00,32.0,25.0,-100.00,SW,225,1.0,-999.0,73,-99.99,,,-99.99,0.000000,,2013-04-26 05:42:00,
2013-04-26 01:52:00,32.0,25.0,-100.00,SW,225,1.0,-999.0,73,-99.99,,,-99.99,0.000000,,2013-04-26 05:52:00,
2013-04-26 02:00:00,32.0,25.0,-100.00,SW,225,0.0,-999.0,75,-99.99,,,-99.99,0.000000,,2013-04-26 06:00:00,
2013-04-26 02:42:00,32.0,25.0,-100.00,SW,225,0.0,-999.0,75,-99.99,,,-99.99,0.000000,,2013-04-26 06:42:00,
2013-04-26 02:52:00,32.0,25.0,-100.00,SW,225,0.0,-999.0,75,-99.99,,,-99.99,0.000000,,2013-04-26 06:52:00,
2013-04-26 03:00:00,31.0,25.0,-100.00,SW,225,1.0,-999.0,79,-99.99,,,-99.99,0.000000,,2013-04-26 07:00:00,
2013-04-26 03:42:00,31.0,25.0,-100.00,SW,225,1.0,-999.0,79,-99.99,,,-99.99,0.000000,,2013-04-26 07:42:00,
2013-04-26 03:52:00,31.0,25.0,-100.00,SW,225,1.0,-999.0,79,-99.99,,,-99.99,0.000000,,2013-04-26 07:52:00,
2013-04-26 04:00:00,29.0,25.0,-100.00,SE,135,0.0,-999.0,84,-99.99,,,-99.99,0.000000,,2013-04-26 08:00:00,
2013-04-26 04:42:00,29.0,25.0,-100.00,SE,135,0.0,-999.0,84,-99.99,,,-99.99,0.000000,,2013-04-26 08:42:00,
2013-04-26 04:52:00,29.0,25.0,-100.00,SE,135,0.0,-999.0,84,-99.99,,,-99.99,0.000000,,2013-04-26 08:52:00,
2013-04-26 05:00:00,28.0,25.0,-100.00,SW,225,0.0,-999.0,89,-99.99,,,-99.99,0.000000,,2013-04-26 09:00:00,
2013-04-26 05:43:00,28.0,25.0,-100.00,SW,225,0.0,-999.0,89,-99.99,,,-99.99,0.000000,,2013-04-26 09:43:00,
2013-04-26 05:53:00,28.0,25.0,-100.00,SW,225,0.0,-999.0,89,-99.99,,,-99.99,0.000000,,2013-04-26 09:53:00,
2013-04-26 06:00:00,27.0,25.0,-100.00,SSW,202,0.0,-999.0,90,-99.99,,,-99.99,0.000000,,2013-04-26 10:00:00,
2013-04-26 06:42:00,27.0,25.0,-100.00,SSW,202,0.0,-999.0,90,-99.99,,,-99.99,0.000000,,2013-04-26 10:42:00,
2013-04-26 06:52:00,27.0,25.0,-100.00,SSW,202,0.0,-999.0,90,-99.99,,,-99.99,0.000000,,2013-04-26 10:52:00,
2013-04-26 07:00:00,28.0,26.0,-100.00,SW,225,0.0,-999.0,91,-99.99,,,-99.99,8.120000,,2013-04-26 11:00:00,
2013-04-26 07:42:00,28.0,26.0,-100.00,SW,225,0.0,-999.0,91,-99.99,,,-99.99,8.120000,,2013-04-26 11:42:00,
2013-04-26 07:52:00,28.0,26.0,-100.00,SW,225,0.0,-999.0,91,-99.99,,,-99.99,8.120000,,2013-04-26 11:52:00,
2013-04-26 08:00:00,31.0,28.0,-100.00,SW,225,0.0,-999.0,88,-99.99,,,-99.99,100.919998,,2013-04-26 12:00:00,
2013-04-26 08:42:00,31.0,28.0,-100.00,SW,225,0.0,-999.0,88,-99.99,,,-99.99,100.919998,,2013-04-26 12:42:00,
2013-04-26 08:52:00,31.0,28.0,-100.00,SW,225,0.0,-999.0,88,-99.99,,,-99.99,100.919998,,2013-04-26 12:52:00,
2013-04-26 09:00:00,40.0,30.0,-100.00,SSW,202,0.0,-999.0,68,-99.99,,,-99.99,259.839996,,2013-04-26 13:00:00,
2013-04-26 09:42:00,40.0,30.0,-100.00,SSW,202,0.0,-999.0,68,-99.99,,,-99.99,259.839996,,2013-04-26 13:42:00,
2013-04-26 09:52:00,40.0,30.0,-100.00,SSW,202,0.0,-999.0,68,-99.99,,,-99.99,259.839996,,2013-04-26 13:52:00,
2013-04-26 10:00:00,44.0,29.0,-100.00,SSW,202,1.0,-999.0,54,-99.99,,,-99.99,410.640015,,2013-04-26 14:00:00,
2013-04-26 10:42:00,44.0,29.0,-100.00,SSW,202,1.0,-999.0,54,-99.99,,,-99.99,410.640015,,2013-04-26 14:42:00,
2013-04-26 10:52:00,44.0,29.0,-100.00,SSW,202,1.0,-999.0,54,-99.99,,,-99.99,410.640015,,2013-04-26 14:52:00,
2013-04-26 11:00:00,48.0,27.0,-100.00,SSW,202,3.0,-999.0,45,-99.99,,,-99.99,584.640015,,2013-04-26 15:00:00,
2013-04-26 11:43:00,48.0,27.0,-100.00,SSW,202,3.0,-999.0,45,-99.99,,,-99.99,584.640015,,2013-04-26 15:43:00,
2013-04-26 11:53:00,48.0,27.0,-100.00,SSW,202,3.0,-999.0,45,-99.99,,,-99.99,584.640015,,2013-04-26 15:53:00,
2013-04-26 12:00:00,49.0,26.0,-100.00,SSW,202,6.0,-999.0,40,-99.99,,,-99.99,715.719971,,2013-04-26 16:00:00,
2013-04-26 12:42:00,49.0,26.0,-100.00,SSW,202,6.0,-999.0,40,-99.99,,,-99.99,715.719971,,2013-04-26 16:42:00,
2013-04-26 12:53:00,49.0,26.0,-100.00,SSW,202,6.0,-999.0,40,-99.99,,,-99.99,715.719971,,2013-04-26 16:53:00,
2013-04-26 13:00:00,50.0,26.0,-100.00,South,180,6.0,-999.0,37,-99.99,,,-99.99,795.760010,,2013-04-26 17:00:00,
2013-04-26 13:42:00,50.0,26.0,-100.00,South,180,6.0,-999.0,37,-99.99,,,-99.99,795.760010,,2013-04-26 17:42:00,
2013-04-26 13:52:00,50.0,26.0,-100.00,South,180,6.0,-999.0,37,-99.99,,,-99.99,795.760010,,2013-04-26 17:52:00,
2013-04-26 14:00:00,52.0,27.0,-100.00,South,180,4.0,-999.0,36,-99.99,,,-99.99,821.280029,,2013-04-26 18:00:00,
2013-04-26 14:42:00,52.0,27.0,-100.00,South,180,4.0,-999.0,36,-99.99,,,-99.99,821.280029,,2013-04-26 18:42:00,
2013-04-26 14:52:00,52.0,27.0,-100.00,South,180,4.0,-999.0,36,-99.99,,,-99.99,821.280029,,2013-04-26 18:52:00,
2013-04-26 15:00:00,54.0,28.0,-100.00,South,180,5.0,-999.0,36,-99.99,,,-99.99,791.119995,,2013-04-26 19:00:00,
2013-04-26 15:42:00,54.0,28.0,-100.00,South,180,5.0,-999.0,36,-99.99,,,-99.99,791.119995,,2013-04-26 19:42:00,
2013-04-26 15:52:00,54.0,28.0,-100.00,South,180,5.0,-999.0,36,-99.99,,,-99.99,791.119995,,2013-04-26 19:52:00,
2013-04-26 16:00:00,55.0,29.0,-100.00,SSW,202,8.0,-999.0,36,-99.99,,,-99.99,720.359985,,2013-04-26 20:00:00,
2013-04-26 16:42:00,55.0,29.0,-100.00,SSW,202,8.0,-999.0,36,-99.99,,,-99.99,720.359985,,2013-04-26 20:42:00,
2013-04-26 16:52:00,55.0,29.0,-100.00,SSW,202,8.0,-999.0,36,-99.99,,,-99.99,720.359985,,2013-04-26 20:52:00,
2013-04-26 17:00:00,56.0,29.0,-100.00,SSW,202,9.0,-999.0,35,-99.99,,,-99.99,599.719971,,2013-04-26 21:00:00,
2013-04-26 17:42:00,56.0,29.0,-100.00,SSW,202,9.0,-999.0,35,-99.99,,,-99.99,599.719971,,2013-04-26 21:42:00,
2013-04-26 17:53:00,56.0,29.0,-100.00,SSW,202,9.0,-999.0,35,-99.99,,,-99.99,599.719971,,2013-04-26 21:53:00,
2013-04-26 18:00:00,57.0,32.0,-100.00,South,180,6.0,-999.0,38,-99.99,,,-99.99,429.200012,,2013-04-26 22:00:00,
2013-04-26 18:42:00,57.0,32.0,-100.00,South,180,6.0,-999.0,38,-99.99,,,-99.99,429.200012,,2013-04-26 22:42:00,
2013-04-26 18:52:00,57.0,32.0,-100.00,South,180,6.0,-999.0,38,-99.99,,,-99.99,429.200012,,2013-04-26 22:52:00,
2013-04-26 19:00:00,56.0,33.0,-100.00,South,180,6.0,-999.0,41,-99.99,,,-99.99,190.240005,,2013-04-26 23:00:00,
2013-04-26 19:42:00,56.0,33.0,-100.00,South,180,6.0,-999.0,41,-99.99,,,-99.99,190.240005,,2013-04-26 23:42:00,
2013-04-26 19:52:00,56.0,33.0,-100.00,South,180,6.0,-999.0,41,-99.99,,,-99.99,190.240005,,2013-04-26 23:52:00,
2013-04-26 20:00:00,54.0,33.0,-100.00,South,180,3.0,-999.0,44,-99.99,,,-99.99,78.879997,,2013-04-27 00:00:00,
2013-04-26 20:42:00,54.0,33.0,-100.00,South,180,3.0,-999.0,44,-99.99,,,-99.99,78.879997,,2013-04-27 00:42:00,
2013-04-26 20:52:00,54.0,33.0,-100.00,South,180,3.0,-999.0,44,-99.99,,,-99.99,78.879997,,2013-04-27 00:52:00,
2013-04-26 21:00:00,52.0,33.0,-100.00,South,180,2.0,-999.0,48,-99.99,,,-99.99,5.800000,,2013-04-27 01:00:00,
2013-04-26 21:42:00,52.0,33.0,-100.00,South,180,2.0,-999.0,48,-99.99,,,-99.99,5.800000,,2013-04-27 01:42:00,
2013-04-26 21:52:00,52.0,33.0,-100.00,South,180,2.0,-999.0,48,-99.99,,,-99.99,5.800000,,2013-04-27 01:52:00,
2013-04-26 22:00:00,50.0,33.0,-100.00,South,180,1.0,-999.0,53,-99.99,,,-99.99,0.000000,,2013-04-27 02:00:00,
2013-04-26 22:42:00,50.0,33.0,-100.00,South,180,1.0,-999.0,53,-99.99,,,-99.99,0.000000,,2013-04-27 02:42:00,
2013-04-26 22:52:00,50.0,33.0,-100.00,South,180,1.0,-999.0,53,-99.99,,,-99.99,0.000000,,2013-04-27 02:52:00,
2013-04-26 23:00:00,47.0,34.0,-100.00,South,180,0.0,-999.0,59,-99.99,,,-99.99,0.000000,,2013-04-27 03:00:00,
2013-04-26 23:43:00,47.0,34.0,-100.00,South,180,0.0,-999.0,59,-99.99,,,-99.99,0.000000,,2013-04-27 03:43:00,
2013-04-26 23:53:00,47.0,34.0,-100.00,South,180,0.0,-999.0,59,-99.99,,,-99.99,0.000000,,2013-04-27 03:53:00,